createdAt,value
2018-12-06T00:00:11.780Z,19.00
2018-12-06T00:02:41.169Z,17.47
2018-12-06T00:05:10.662Z,19.03
2018-12-06T00:07:51.637Z,18.77
2018-12-06T00:10:21.044Z,19.30
2018-12-06T00:12:50.519Z,18.57
2018-12-06T00:15:27.678Z,41.87
2018-12-06T00:17:57.081Z,28.93
2018-12-06T00:20:26.493Z,18.83
2018-12-06T00:22:55.880Z,16.87
2018-12-06T00:25:25.259Z,17.37
2018-12-06T00:27:54.711Z,18.20
2018-12-06T00:30:35.152Z,16.53
2018-12-06T00:33:05.149Z,18.07
2018-12-06T00:35:34.628Z,16.00
2018-12-06T00:38:04.321Z,16.57
2018-12-06T00:40:33.766Z,16.43
2018-12-06T00:43:03.133Z,18.20
2018-12-06T00:45:32.614Z,15.93
2018-12-06T00:48:01.981Z,16.53
2018-12-06T00:50:31.366Z,15.23
2018-12-06T00:53:00.774Z,15.50
2018-12-06T00:55:30.186Z,16.57
2018-12-06T00:57:59.551Z,16.20
2018-12-06T01:00:29.045Z,16.63
2018-12-06T01:02:58.608Z,18.33
2018-12-06T01:05:28.027Z,17.20
2018-12-06T01:07:57.397Z,28.97
2018-12-06T01:10:26.788Z,29.40
2018-12-06T01:12:56.401Z,16.17
2018-12-06T01:15:25.901Z,19.47
2018-12-06T01:17:55.409Z,16.53
2018-12-06T01:20:24.831Z,15.57
2018-12-06T01:22:54.392Z,16.53
2018-12-06T01:25:23.773Z,15.77
2018-12-06T01:27:53.257Z,15.97
2018-12-06T01:30:22.637Z,17.43
2018-12-06T01:32:51.917Z,17.43
2018-12-06T01:35:21.375Z,15.70
2018-12-06T01:37:50.746Z,18.20
2018-12-06T01:40:20.509Z,17.33
2018-12-06T01:42:49.961Z,17.27
2018-12-06T01:45:19.316Z,15.87
2018-12-06T01:47:48.698Z,16.13
2018-12-06T01:50:18.260Z,18.03
2018-12-06T01:52:47.749Z,17.70
2018-12-06T01:55:17.130Z,17.33
2018-12-06T01:57:46.513Z,17.60
2018-12-06T02:00:15.997Z,17.50
2018-12-06T02:02:45.357Z,16.63
2018-12-06T02:05:14.839Z,16.43
2018-12-06T02:07:44.338Z,18.27
2018-12-06T02:10:13.748Z,16.40
2018-12-06T02:12:43.106Z,17.03
2018-12-06T02:15:12.482Z,17.03
2018-12-06T02:17:41.945Z,17.13
2018-12-06T02:20:11.342Z,17.60
2018-12-06T02:22:40.894Z,39.00
2018-12-06T02:25:10.398Z,24.67
2018-12-06T02:27:39.795Z,19.07
2018-12-06T02:30:09.402Z,18.20
2018-12-06T02:32:38.862Z,16.50
2018-12-06T02:35:08.262Z,17.03
2018-12-06T02:37:44.125Z,17.47
2018-12-06T02:40:13.649Z,16.40
2018-12-06T02:42:43.013Z,16.53
2018-12-06T02:45:12.936Z,17.13
2018-12-06T02:47:42.759Z,17.53
2018-12-06T02:50:12.135Z,17.80
2018-12-06T02:52:41.508Z,15.97
2018-12-06T02:55:11.037Z,16.60
2018-12-06T02:57:40.429Z,17.00
2018-12-06T03:00:09.806Z,16.60
2018-12-06T03:02:39.267Z,16.70
2018-12-06T03:05:08.761Z,17.07
2018-12-06T03:07:38.135Z,16.37
2018-12-06T03:10:07.631Z,15.87
2018-12-06T03:12:37.108Z,15.57
2018-12-06T03:15:06.677Z,16.40
2018-12-06T03:17:36.051Z,14.17
2018-12-06T03:20:12.053Z,15.87
2018-12-06T03:22:41.453Z,14.50
2018-12-06T03:25:11.033Z,14.67
2018-12-06T03:27:40.603Z,15.37
2018-12-06T03:30:10.073Z,13.63
2018-12-06T03:32:39.765Z,15.83
2018-12-06T03:35:09.226Z,14.63
2018-12-06T03:37:38.629Z,14.27
2018-12-06T03:40:08.163Z,13.60
2018-12-06T03:42:37.521Z,14.10
2018-12-06T03:45:07.097Z,14.50
2018-12-06T03:47:36.445Z,16.97
2018-12-06T03:50:06.332Z,15.93
2018-12-06T03:52:35.685Z,13.63
2018-12-06T03:55:05.214Z,14.60
2018-12-06T03:57:34.598Z,16.03
2018-12-06T04:00:04.449Z,16.13
2018-12-06T04:02:33.860Z,15.63
2018-12-06T04:05:03.383Z,13.77
2018-12-06T04:07:32.863Z,14.67
2018-12-06T04:10:02.311Z,15.83
2018-12-06T04:12:31.689Z,16.30
2018-12-06T04:15:01.155Z,15.33
2018-12-06T04:17:30.611Z,13.60
2018-12-06T04:20:00.061Z,14.97
2018-12-06T04:22:29.425Z,15.37
2018-12-06T04:24:58.811Z,14.33
2018-12-06T04:27:28.271Z,14.73
2018-12-06T04:29:57.742Z,14.77
2018-12-06T04:32:27.119Z,14.13
2018-12-06T04:34:56.577Z,13.97
2018-12-06T04:37:25.953Z,14.70
2018-12-06T04:39:55.335Z,15.07
2018-12-06T04:42:24.793Z,15.43
2018-12-06T04:44:54.582Z,13.93
2018-12-06T04:47:24.078Z,13.80
2018-12-06T04:49:53.438Z,15.10
2018-12-06T04:52:22.891Z,13.50
2018-12-06T04:54:52.332Z,13.70
2018-12-06T04:57:21.744Z,13.10
2018-12-06T04:59:51.217Z,13.47
2018-12-06T05:02:20.577Z,12.57
2018-12-06T05:04:49.955Z,13.60
2018-12-06T05:07:19.425Z,12.67
2018-12-06T05:09:48.809Z,11.87
2018-12-06T05:12:18.170Z,12.20
2018-12-06T05:14:47.650Z,13.60
2018-12-06T05:17:17.034Z,12.17
2018-12-06T05:19:46.315Z,12.20
2018-12-06T05:22:15.672Z,13.10
2018-12-06T05:24:45.136Z,11.60
2018-12-06T05:27:14.606Z,13.47
2018-12-06T05:29:43.986Z,12.60
2018-12-06T05:32:13.465Z,13.57
2018-12-06T05:34:43.108Z,15.00
2018-12-06T05:37:12.498Z,12.63
2018-12-06T05:39:41.982Z,13.10
2018-12-06T05:42:11.513Z,14.00
2018-12-06T05:44:41.069Z,12.97
2018-12-06T05:47:10.452Z,12.00
2018-12-06T05:49:39.827Z,12.60
2018-12-06T05:52:09.310Z,11.93
2018-12-06T05:54:38.794Z,11.83
2018-12-06T05:57:08.157Z,11.90
2018-12-06T05:59:37.525Z,12.20
2018-12-06T06:02:07.013Z,11.57
2018-12-06T06:04:36.381Z,11.63
2018-12-06T06:07:05.737Z,11.40
2018-12-06T06:09:35.106Z,12.70
2018-12-06T06:12:04.458Z,11.53
2018-12-06T06:14:33.826Z,14.40
2018-12-06T06:17:03.197Z,13.03
2018-12-06T06:19:32.597Z,12.97
2018-12-06T06:22:01.948Z,12.83
2018-12-06T06:24:31.309Z,12.30
2018-12-06T06:27:00.776Z,13.13
2018-12-06T06:29:30.135Z,11.70
2018-12-06T06:31:59.597Z,14.10
2018-12-06T06:34:29.050Z,13.33
2018-12-06T06:36:58.823Z,14.40
2018-12-06T06:39:28.161Z,14.13
2018-12-06T06:41:57.633Z,12.53
2018-12-06T06:44:26.984Z,14.03
2018-12-06T06:46:56.449Z,13.07
2018-12-06T06:49:25.831Z,14.13
2018-12-06T06:51:55.181Z,12.87
2018-12-06T06:54:24.671Z,14.33
2018-12-06T06:56:54.452Z,13.70
2018-12-06T06:59:26.193Z,15.50
2018-12-06T07:01:55.274Z,19.30
2018-12-06T07:04:24.625Z,16.53
2018-12-06T07:06:53.936Z,18.47
2018-12-06T07:09:23.393Z,20.07
2018-12-06T07:11:52.757Z,17.33
2018-12-06T07:14:22.376Z,15.37
2018-12-06T07:16:51.886Z,15.73
2018-12-06T07:19:21.441Z,15.33
2018-12-06T07:21:50.797Z,14.10
2018-12-06T07:24:20.257Z,14.03
2018-12-06T07:26:49.738Z,14.43
2018-12-06T07:29:19.115Z,16.33
2018-12-06T07:31:48.595Z,15.97
2018-12-06T07:34:18.149Z,15.47
2018-12-06T07:36:47.501Z,15.67
2018-12-06T07:39:17.032Z,14.67
2018-12-06T07:41:46.529Z,14.80
2018-12-06T07:44:15.924Z,14.50
2018-12-06T07:46:45.302Z,15.53
2018-12-06T07:49:14.746Z,15.33
2018-12-06T07:51:44.122Z,15.00
2018-12-06T07:54:14.060Z,15.00
2018-12-06T07:56:43.649Z,16.40
2018-12-06T07:59:13.003Z,15.37
2018-12-06T08:01:42.469Z,13.50
2018-12-06T08:04:11.832Z,13.33
2018-12-06T08:06:41.189Z,14.03
2018-12-06T08:09:10.805Z,14.83
2018-12-06T08:11:40.161Z,14.40
2018-12-06T08:14:09.627Z,13.90
2018-12-06T08:16:38.973Z,13.97
2018-12-06T08:19:08.343Z,14.30
2018-12-06T08:21:37.698Z,12.30
2018-12-06T08:24:07.057Z,13.30
2018-12-06T08:26:36.522Z,14.77
2018-12-06T08:29:05.874Z,14.00
2018-12-06T08:31:35.237Z,14.20
2018-12-06T08:34:06.363Z,14.63
2018-12-06T08:36:35.951Z,15.23
2018-12-06T08:39:06.657Z,14.23
2018-12-06T08:41:36.006Z,14.97
2018-12-06T08:44:05.372Z,15.13
2018-12-06T08:46:35.216Z,14.47
2018-12-06T08:49:04.800Z,14.83
2018-12-06T08:51:34.145Z,16.43
2018-12-06T08:54:03.533Z,19.63
2018-12-06T08:56:32.997Z,21.37
2018-12-06T08:59:02.365Z,20.87
2018-12-06T09:01:32.074Z,18.30
2018-12-06T09:04:01.833Z,18.03
2018-12-06T09:06:31.393Z,17.67
2018-12-06T09:09:00.742Z,15.63
2018-12-06T09:11:30.113Z,15.60
2018-12-06T09:13:59.588Z,14.37
2018-12-06T09:16:28.957Z,14.40
2018-12-06T09:18:58.325Z,13.93
2018-12-06T09:21:28.082Z,14.23
2018-12-06T09:23:57.365Z,14.27
2018-12-06T09:26:26.745Z,14.60
2018-12-06T09:28:56.139Z,16.30
2018-12-06T09:31:25.593Z,14.40
2018-12-06T09:34:03.665Z,14.43
2018-12-06T09:36:33.142Z,13.60
2018-12-06T09:39:02.757Z,13.13
2018-12-06T09:41:32.206Z,12.13
2018-12-06T09:44:01.565Z,12.30
2018-12-06T09:46:33.877Z,11.43
2018-12-06T09:49:04.688Z,11.73
2018-12-06T09:51:34.059Z,13.00
2018-12-06T09:54:03.533Z,13.67
2018-12-06T09:56:32.993Z,12.17
2018-12-06T09:59:02.349Z,13.97
2018-12-06T10:01:31.755Z,13.90
2018-12-06T10:04:01.108Z,13.07
2018-12-06T10:06:30.485Z,14.00
2018-12-06T10:08:59.956Z,14.27
2018-12-06T10:11:29.313Z,15.03
2018-12-06T10:13:58.776Z,13.93
2018-12-06T10:16:28.145Z,14.67
2018-12-06T10:18:57.517Z,14.40
2018-12-06T10:21:26.881Z,13.93
2018-12-06T10:23:56.433Z,13.30
2018-12-06T10:26:25.867Z,13.20
2018-12-06T10:28:55.308Z,12.80
2018-12-06T10:31:24.766Z,11.80
2018-12-06T10:33:54.345Z,12.17
2018-12-06T10:36:23.706Z,11.73
2018-12-06T10:38:53.177Z,12.50
2018-12-06T10:41:22.535Z,13.03
2018-12-06T10:43:51.985Z,12.40
2018-12-06T10:46:23.195Z,13.10
2018-12-06T10:48:52.697Z,12.77
2018-12-06T10:51:33.533Z,12.57
2018-12-06T10:54:02.917Z,13.23
2018-12-06T10:56:32.285Z,13.07
2018-12-06T10:59:01.670Z,14.77
2018-12-06T11:01:36.312Z,14.47
2018-12-06T11:04:05.685Z,14.23
2018-12-06T11:06:35.133Z,14.10
2018-12-06T11:09:06.224Z,13.20
2018-12-06T11:11:35.593Z,16.50
2018-12-06T11:14:05.305Z,17.43
2018-12-06T11:16:34.769Z,15.47
2018-12-06T11:19:04.245Z,14.43
2018-12-06T11:21:33.613Z,25.40
2018-12-06T11:24:03.121Z,22.33
2018-12-06T11:26:32.501Z,15.90
2018-12-06T11:29:01.854Z,15.37
2018-12-06T11:31:31.234Z,19.63
2018-12-06T11:34:00.728Z,17.93
2018-12-06T11:36:30.297Z,16.43
2018-12-06T11:38:59.699Z,14.93
2018-12-06T11:41:29.065Z,14.17
2018-12-06T11:44:00.058Z,15.33
2018-12-06T11:46:32.027Z,15.47
2018-12-06T11:49:01.401Z,14.37
2018-12-06T11:51:32.330Z,15.23
2018-12-06T11:54:03.749Z,14.57
2018-12-06T11:56:35.363Z,15.87
2018-12-06T11:59:06.727Z,22.10
2018-12-06T12:01:38.271Z,21.30
2018-12-06T12:04:09.794Z,17.03
2018-12-06T12:06:41.682Z,17.83
2018-12-06T12:09:11.770Z,24.30
2018-12-06T12:11:41.880Z,15.63
2018-12-06T12:14:12.851Z,15.40
2018-12-06T12:16:42.870Z,22.77
2018-12-06T12:19:13.003Z,32.93
2018-12-06T12:21:43.079Z,17.87
2018-12-06T12:24:12.764Z,16.93
2018-12-06T12:26:42.125Z,21.03
2018-12-06T12:29:11.474Z,24.83
2018-12-06T12:31:41.373Z,16.20
2018-12-06T12:34:11.350Z,15.40
2018-12-06T12:36:40.799Z,14.70
2018-12-06T12:39:11.073Z,15.63
2018-12-06T12:41:40.945Z,15.80
2018-12-06T12:44:10.323Z,16.00
2018-12-06T12:46:40.299Z,17.53
2018-12-06T12:49:09.861Z,16.13
2018-12-06T12:51:39.392Z,16.10
2018-12-06T12:54:09.174Z,16.77
2018-12-06T12:56:38.577Z,16.40
2018-12-06T12:59:08.033Z,18.13
2018-12-06T13:01:37.493Z,23.70
2018-12-06T13:04:06.957Z,16.30
2018-12-06T13:06:36.409Z,19.63
2018-12-06T13:09:07.637Z,19.47
2018-12-06T13:11:37.001Z,16.47
2018-12-06T13:14:06.385Z,16.73
2018-12-06T13:16:35.745Z,16.47
2018-12-06T13:19:05.237Z,15.13
2018-12-06T13:21:34.595Z,16.07
2018-12-06T13:24:04.089Z,15.47
2018-12-06T13:26:33.517Z,15.03
2018-12-06T13:29:03.036Z,14.00
2018-12-06T13:31:32.405Z,14.87
2018-12-06T13:34:01.845Z,15.33
2018-12-06T13:36:31.321Z,14.67
2018-12-06T13:39:01.077Z,14.63
2018-12-06T13:41:30.637Z,15.47
2018-12-06T13:43:59.993Z,15.33
2018-12-06T13:46:29.457Z,14.87
2018-12-06T13:48:58.809Z,14.30
2018-12-06T13:51:28.421Z,14.87
2018-12-06T13:53:57.812Z,14.67
2018-12-06T13:56:27.257Z,13.63
2018-12-06T13:59:26.405Z,13.77
2018-12-06T14:01:55.870Z,17.27
2018-12-06T14:04:25.278Z,17.50
2018-12-06T14:06:54.737Z,17.83
2018-12-06T14:09:24.093Z,14.47
2018-12-06T14:11:53.461Z,13.33
2018-12-06T14:14:22.825Z,13.77
2018-12-06T14:16:52.302Z,17.90
2018-12-06T14:19:21.657Z,16.23
2018-12-06T14:21:51.181Z,15.73
2018-12-06T14:24:20.653Z,15.07
2018-12-06T14:26:50.017Z,15.30
2018-12-06T14:29:19.377Z,15.20
2018-12-06T14:31:49.961Z,14.87
2018-12-06T14:34:19.326Z,14.73
2018-12-06T14:37:01.562Z,15.20
2018-12-06T14:39:20.263Z,15.23
2018-12-06T14:41:49.640Z,16.57
2018-12-06T14:44:19.093Z,16.87
2018-12-06T14:46:48.466Z,18.10
2018-12-06T14:49:17.820Z,27.80
2018-12-06T14:51:47.282Z,22.43
2018-12-06T14:54:16.643Z,17.93
2018-12-06T14:56:46.181Z,18.17
2018-12-06T15:01:46.135Z,17.17
2018-12-06T15:04:15.521Z,15.63
2018-12-06T15:06:44.897Z,14.67
2018-12-06T15:09:14.319Z,14.47
2018-12-06T15:11:43.773Z,14.80
2018-12-06T15:14:13.266Z,15.47
2018-12-06T15:16:42.625Z,21.53
2018-12-06T15:19:12.021Z,19.07
2018-12-06T15:21:41.408Z,17.23
2018-12-06T15:24:10.789Z,17.10
2018-12-06T15:26:40.870Z,16.57
2018-12-06T15:29:10.342Z,14.90
2018-12-06T15:31:39.938Z,15.13
2018-12-06T15:34:09.543Z,17.33
2018-12-06T15:36:39.452Z,18.53
2018-12-06T15:39:09.581Z,17.33
2018-12-06T15:41:39.346Z,19.57
2018-12-06T15:44:08.720Z,18.93
2018-12-06T15:46:38.315Z,19.20
2018-12-06T15:49:14.101Z,17.87
2018-12-06T15:51:43.518Z,18.07
2018-12-06T15:54:13.205Z,19.17
2018-12-06T15:56:42.633Z,18.40
2018-12-06T15:59:12.006Z,20.17
2018-12-06T16:01:41.558Z,22.27
2018-12-06T16:04:11.252Z,18.30
2018-12-06T16:06:40.701Z,30.30
2018-12-06T16:09:10.745Z,42.73
2018-12-06T16:11:40.307Z,55.07
2018-12-06T16:14:09.957Z,56.40
2018-12-06T16:16:39.474Z,72.03
2018-12-06T16:19:08.854Z,125.47
2018-12-06T16:21:38.595Z,41.97
2018-12-06T16:24:08.192Z,30.70
2018-12-06T16:26:37.719Z,27.90
2018-12-06T16:29:07.217Z,26.47
2018-12-06T16:31:36.789Z,26.50
2018-12-06T16:34:06.145Z,22.07
2018-12-06T16:36:35.533Z,28.43
2018-12-06T16:39:07.266Z,37.03
2018-12-06T16:41:36.741Z,38.97
2018-12-06T16:44:06.130Z,26.57
2018-12-06T16:46:35.629Z,29.43
2018-12-06T16:49:10.083Z,30.93
2018-12-06T16:51:36.677Z,30.20
2018-12-06T16:54:06.316Z,30.53
2018-12-06T16:56:35.741Z,32.20
2018-12-06T16:59:05.113Z,31.03
2018-12-06T17:01:34.628Z,30.70
2018-12-06T17:04:04.470Z,30.53
2018-12-06T17:06:33.922Z,31.80
2018-12-06T17:09:05.382Z,29.73
2018-12-06T17:11:34.989Z,35.90
2018-12-06T17:14:04.437Z,47.10
2018-12-06T17:16:33.989Z,62.33
2018-12-06T17:19:06.526Z,28.20
2018-12-06T17:21:37.079Z,23.63
2018-12-06T17:24:07.733Z,23.83
2018-12-06T17:26:37.476Z,22.67
2018-12-06T17:29:07.021Z,22.63
2018-12-06T17:31:36.740Z,23.20
2018-12-06T17:34:06.129Z,24.13
2018-12-06T17:36:35.881Z,22.37
2018-12-06T17:39:07.620Z,25.00
2018-12-06T17:41:37.106Z,25.80
2018-12-06T17:44:06.601Z,29.20
2018-12-06T17:46:35.982Z,34.20
2018-12-06T17:49:05.353Z,32.90
2018-12-06T17:51:34.753Z,31.70
2018-12-06T17:54:04.312Z,30.43
2018-12-06T17:56:33.701Z,29.07
2018-12-06T17:59:03.097Z,47.63
2018-12-06T18:01:32.711Z,70.67
2018-12-06T18:04:02.306Z,39.60
2018-12-06T18:06:31.770Z,32.47
2018-12-06T18:09:01.120Z,27.53
2018-12-06T18:11:30.656Z,26.17
2018-12-06T18:14:00.145Z,26.07
2018-12-06T18:16:29.710Z,24.93
2018-12-06T18:18:59.361Z,27.30
2018-12-06T18:21:28.730Z,28.47
2018-12-06T18:23:58.573Z,27.20
2018-12-06T18:26:28.814Z,26.37
2018-12-06T18:28:58.261Z,25.13
2018-12-06T18:31:27.753Z,39.23
2018-12-06T18:33:57.025Z,32.60
2018-12-06T18:36:26.565Z,31.63
2018-12-06T18:38:57.172Z,28.27
2018-12-06T18:41:26.622Z,29.63
2018-12-06T18:43:56.383Z,30.30
2018-12-06T18:46:26.087Z,29.30
2018-12-06T18:48:55.573Z,29.70
2018-12-06T18:51:25.514Z,43.50
2018-12-06T18:53:56.353Z,48.33
2018-12-06T18:56:26.137Z,43.50
2018-12-06T18:58:55.693Z,58.07
2018-12-06T19:01:25.103Z,37.43
2018-12-06T19:03:54.485Z,28.10
2018-12-06T19:06:24.313Z,25.33
2018-12-06T19:08:54.300Z,25.63
2018-12-06T19:11:23.768Z,26.07
2018-12-06T19:13:53.426Z,27.27
2018-12-06T19:16:22.995Z,31.47
2018-12-06T19:18:52.478Z,33.10
2018-12-06T19:21:22.274Z,28.87
2018-12-06T19:23:51.813Z,24.07
2018-12-06T19:26:21.330Z,24.03
2018-12-06T19:28:50.814Z,24.03
2018-12-06T19:31:20.175Z,23.70
2018-12-06T19:33:50.063Z,26.77
2018-12-06T19:36:19.426Z,26.23
2018-12-06T19:38:48.826Z,26.07
2018-12-06T19:41:18.420Z,52.47
2018-12-06T19:43:48.055Z,45.57
2018-12-06T19:46:17.725Z,31.63
2018-12-06T19:48:47.094Z,28.67
2018-12-06T19:51:16.570Z,26.90
2018-12-06T19:53:46.242Z,25.53
2018-12-06T19:56:16.306Z,26.40
2018-12-06T19:58:45.909Z,27.27
2018-12-06T20:01:15.486Z,28.00
2018-12-06T20:03:44.937Z,38.07
2018-12-06T20:06:14.946Z,51.23
2018-12-06T20:08:44.513Z,36.87
2018-12-06T20:11:14.172Z,34.63
2018-12-06T20:13:43.726Z,30.67
2018-12-06T20:16:13.129Z,28.33
2018-12-06T20:18:42.514Z,27.90
2018-12-06T20:21:12.235Z,27.00
2018-12-06T20:23:41.688Z,27.57
2018-12-06T20:26:11.409Z,28.57
2018-12-06T20:28:40.963Z,27.43
2018-12-06T20:31:10.416Z,28.50
2018-12-06T20:33:39.971Z,29.07
2018-12-06T20:36:09.347Z,25.90
2018-12-06T20:38:39.227Z,30.33
2018-12-06T20:41:08.790Z,34.40
2018-12-06T20:43:38.574Z,40.93
2018-12-06T20:46:07.983Z,39.40
2018-12-06T20:48:37.477Z,30.73
2018-12-06T20:51:06.864Z,26.80
2018-12-06T20:53:36.357Z,25.53
2018-12-06T20:56:05.911Z,24.30
2018-12-06T20:58:35.485Z,26.50
2018-12-06T21:01:04.898Z,26.70
2018-12-06T21:03:34.458Z,22.47
2018-12-06T21:06:04.339Z,23.70
2018-12-06T21:08:34.318Z,24.70
2018-12-06T21:11:04.479Z,23.97
2018-12-06T21:13:34.117Z,24.63
2018-12-06T21:16:03.973Z,23.60
2018-12-06T21:18:33.997Z,26.10
2018-12-06T21:21:04.214Z,27.20
2018-12-06T21:23:33.962Z,25.73
2018-12-06T21:26:03.453Z,24.17
2018-12-06T21:28:33.268Z,27.70
2018-12-06T21:31:03.071Z,28.63
2018-12-06T21:33:32.485Z,26.27
2018-12-06T21:36:01.853Z,24.67
2018-12-06T21:38:31.357Z,25.70
2018-12-06T21:41:00.746Z,23.97
2018-12-06T21:43:30.373Z,24.37
2018-12-06T21:45:59.922Z,25.87
2018-12-06T21:48:29.337Z,24.43
2018-12-06T21:50:58.709Z,27.13
2018-12-06T21:53:28.323Z,27.67
2018-12-06T21:55:58.335Z,26.07
2018-12-06T21:58:27.791Z,24.30
2018-12-06T22:00:57.310Z,31.60
2018-12-06T22:03:26.630Z,36.87
2018-12-06T22:05:56.273Z,26.20
2018-12-06T22:08:25.649Z,24.30
2018-12-06T22:10:54.965Z,22.43
2018-12-06T22:13:24.382Z,22.77
2018-12-06T22:15:54.624Z,22.83
2018-12-06T22:18:24.101Z,23.83
2018-12-06T22:20:53.697Z,24.47
2018-12-06T22:23:23.221Z,23.40
2018-12-06T22:25:52.626Z,22.33
2018-12-06T22:28:22.123Z,22.67
2018-12-06T22:30:51.523Z,22.10
2018-12-06T22:33:21.034Z,23.07
2018-12-06T22:35:50.567Z,21.80
2018-12-06T22:38:20.086Z,25.20
2018-12-06T22:40:49.578Z,22.90
2018-12-06T22:43:19.086Z,22.60
2018-12-06T22:46:03.381Z,23.73
2018-12-06T22:48:32.801Z,25.30
2018-12-06T22:51:02.209Z,24.20
2018-12-06T22:53:31.818Z,25.97
2018-12-06T22:56:01.308Z,24.00
2018-12-06T22:58:30.809Z,22.73
2018-12-06T23:01:00.791Z,23.60
2018-12-06T23:03:30.193Z,21.93
2018-12-06T23:05:59.597Z,24.33
2018-12-06T23:08:29.005Z,24.90
2018-12-06T23:10:58.465Z,25.93
2018-12-06T23:13:27.892Z,24.10
2018-12-06T23:15:57.370Z,24.63
2018-12-06T23:18:26.797Z,23.00
2018-12-06T23:20:56.321Z,25.43
2018-12-06T23:23:25.690Z,24.60
2018-12-06T23:25:55.212Z,24.10
2018-12-06T23:28:24.758Z,22.03
2018-12-06T23:30:54.156Z,22.13
2018-12-06T23:33:23.822Z,20.83
2018-12-06T23:35:53.327Z,20.57
2018-12-06T23:38:22.827Z,23.53
2018-12-06T23:40:52.316Z,21.60
2018-12-06T23:43:21.704Z,22.17
2018-12-06T23:45:51.113Z,23.63
2018-12-06T23:48:20.617Z,26.50
2018-12-06T23:50:50.026Z,22.63
2018-12-06T23:53:19.525Z,23.00
2018-12-06T23:55:49.019Z,22.17
2018-12-06T23:58:18.428Z,20.30
